createdAt,value
2019-04-01T00:00:10.118Z,3.13
2019-04-01T00:01:10.005Z,3.15
2019-04-01T00:02:09.909Z,3.22
2019-04-01T00:03:09.802Z,3.23
2019-04-01T00:04:09.702Z,3.20
2019-04-01T00:05:09.619Z,3.17
2019-04-01T00:06:09.498Z,3.10
2019-04-01T00:07:09.400Z,3.04
2019-04-01T00:08:09.307Z,3.04
2019-04-01T00:09:09.199Z,3.01
2019-04-01T00:10:09.114Z,3.01
2019-04-01T00:11:08.996Z,2.97
2019-04-01T00:12:08.896Z,3.07
2019-04-01T00:13:08.796Z,2.86
2019-04-01T00:14:08.696Z,2.77
2019-04-01T00:15:08.611Z,2.73
2019-04-01T00:16:08.494Z,2.83
2019-04-01T00:17:08.397Z,2.87
2019-04-01T00:18:08.293Z,2.95
2019-04-01T00:19:08.192Z,2.84
2019-04-01T00:20:08.112Z,2.87
2019-04-01T00:21:07.991Z,2.80
2019-04-01T00:22:07.909Z,2.76
2019-04-01T00:23:07.922Z,2.79
2019-04-01T00:24:07.701Z,2.83
2019-04-01T00:25:07.605Z,2.84
2019-04-01T00:26:07.500Z,2.99
2019-04-01T00:27:07.388Z,3.07
2019-04-01T00:28:07.288Z,3.01
2019-04-01T00:29:07.185Z,2.77
2019-04-01T00:30:07.101Z,2.81
2019-04-01T00:31:06.990Z,2.71
2019-04-01T00:32:06.883Z,2.79
2019-04-01T00:33:06.782Z,2.80
2019-04-01T00:34:06.714Z,2.79
2019-04-01T00:35:06.585Z,2.81
2019-04-01T00:36:06.496Z,2.87
2019-04-01T00:37:06.378Z,2.83
2019-04-01T00:38:06.281Z,2.74
2019-04-01T00:39:06.178Z,2.50
2019-04-01T00:40:06.094Z,2.48
2019-04-01T00:41:05.975Z,2.48
2019-04-01T00:42:05.874Z,2.53
2019-04-01T00:43:05.772Z,2.51
2019-04-01T00:44:05.674Z,2.59
2019-04-01T00:45:05.573Z,2.53
2019-04-01T00:46:05.488Z,2.55
2019-04-01T00:47:05.376Z,2.56
2019-04-01T00:48:05.270Z,2.27
2019-04-01T00:49:05.175Z,2.36
2019-04-01T00:50:05.068Z,2.27
2019-04-01T00:51:04.981Z,2.25
2019-04-01T00:52:04.868Z,2.27
2019-04-01T00:53:04.766Z,2.27
2019-04-01T00:54:04.664Z,2.29
2019-04-01T00:55:04.563Z,2.20
2019-04-01T00:56:04.486Z,2.08
2019-04-01T00:57:04.361Z,2.18
2019-04-01T00:58:04.259Z,2.19
2019-04-01T00:59:04.161Z,2.23
2019-04-01T01:00:04.059Z,2.36
2019-04-01T01:01:03.972Z,2.41
2019-04-01T01:02:03.857Z,2.36
2019-04-01T01:03:03.753Z,2.40
2019-04-01T01:04:03.657Z,2.32
2019-04-01T01:05:03.554Z,2.29
2019-04-01T01:06:03.469Z,2.29
2019-04-01T01:07:03.348Z,2.38
2019-04-01T01:08:03.246Z,2.36
2019-04-01T01:09:03.148Z,2.32
2019-04-01T01:10:03.070Z,2.20
2019-04-01T01:11:02.962Z,2.20
2019-04-01T01:12:02.845Z,2.18
2019-04-01T01:13:02.743Z,2.26
2019-04-01T01:14:02.646Z,2.26
2019-04-01T01:15:02.540Z,2.37
2019-04-01T01:16:02.464Z,2.29
2019-04-01T01:17:02.339Z,2.26
2019-04-01T01:18:02.246Z,2.15
2019-04-01T01:19:02.255Z,2.25
2019-04-01T01:20:02.041Z,2.25
2019-04-01T01:21:01.951Z,2.32
2019-04-01T01:22:01.833Z,2.32
2019-04-01T01:23:01.731Z,2.41
2019-04-01T01:24:01.634Z,2.37
2019-04-01T01:25:01.529Z,2.41
2019-04-01T01:26:01.555Z,2.41
2019-04-01T01:27:01.334Z,2.36
2019-04-01T01:28:01.230Z,2.53
2019-04-01T01:29:01.126Z,2.55
2019-04-01T01:30:01.026Z,2.56
2019-04-01T01:31:00.944Z,2.51
2019-04-01T01:32:00.823Z,2.59
2019-04-01T01:33:00.823Z,2.65
2019-04-01T01:34:00.623Z,2.63
2019-04-01T01:35:00.522Z,2.79
2019-04-01T01:36:00.437Z,2.76
2019-04-01T01:37:00.319Z,2.83
2019-04-01T01:38:00.225Z,2.77
2019-04-01T01:39:00.118Z,2.90
2019-04-01T01:40:00.345Z,2.87
2019-04-01T01:40:59.934Z,2.90
2019-04-01T01:41:59.815Z,2.99
2019-04-01T01:42:59.714Z,2.98
2019-04-01T01:43:59.616Z,3.07
2019-04-01T01:44:59.512Z,3.07
2019-04-01T01:45:59.430Z,3.08
2019-04-01T01:46:59.417Z,3.20
2019-04-01T01:47:59.212Z,3.28
2019-04-01T01:48:59.114Z,3.25
2019-04-01T01:49:59.013Z,3.34
2019-04-01T01:50:58.928Z,3.35
2019-04-01T01:51:58.810Z,3.37
2019-04-01T01:52:58.708Z,3.37
2019-04-01T01:53:58.714Z,3.44
2019-04-01T01:54:58.509Z,3.54
2019-04-01T01:55:58.428Z,3.50
2019-04-01T01:56:58.311Z,3.60
2019-04-01T01:57:58.207Z,3.57
2019-04-01T01:58:58.109Z,3.59
2019-04-01T01:59:58.009Z,3.62
2019-04-01T02:00:58.028Z,3.74
2019-04-01T02:01:57.807Z,3.74
2019-04-01T02:02:57.707Z,3.74
2019-04-01T02:03:57.609Z,3.78
2019-04-01T02:04:57.508Z,3.81
2019-04-01T02:05:57.425Z,3.77
2019-04-01T02:06:57.311Z,3.78
2019-04-01T02:07:57.313Z,3.75
2019-04-01T02:08:57.106Z,3.78
2019-04-01T02:09:57.005Z,3.81
2019-04-01T02:10:56.927Z,3.80
2019-04-01T02:11:56.813Z,3.77
2019-04-01T02:12:56.709Z,3.80
2019-04-01T02:13:56.608Z,3.75
2019-04-01T02:14:56.609Z,3.75
2019-04-01T02:15:56.425Z,3.82
2019-04-01T02:16:56.308Z,3.82
2019-04-01T02:17:56.208Z,3.89
2019-04-01T02:18:56.111Z,3.81
2019-04-01T02:19:56.008Z,3.82
2019-04-01T02:20:55.925Z,3.77
2019-04-01T02:21:55.917Z,3.90
2019-04-01T02:22:55.715Z,3.88
2019-04-01T02:23:55.609Z,3.88
2019-04-01T02:24:55.530Z,3.89
2019-04-01T02:25:55.411Z,3.88
2019-04-01T02:26:55.326Z,3.89
2019-04-01T02:27:55.338Z,3.92
2019-04-01T02:28:55.112Z,3.89
2019-04-01T02:29:55.011Z,3.93
2019-04-01T02:30:54.930Z,3.93
2019-04-01T02:31:54.813Z,3.89
2019-04-01T02:32:54.715Z,3.86
2019-04-01T02:33:54.624Z,3.80
2019-04-01T02:34:54.513Z,3.86
2019-04-01T02:35:54.414Z,3.92
2019-04-01T02:36:54.333Z,3.92
2019-04-01T02:37:54.214Z,3.96
2019-04-01T02:38:54.118Z,3.89
2019-04-01T02:39:54.109Z,3.86
2019-04-01T02:40:53.920Z,3.96
2019-04-01T02:41:53.837Z,3.89
2019-04-01T02:42:53.719Z,3.90
2019-04-01T02:43:53.615Z,3.93
2019-04-01T02:44:53.540Z,4.04
2019-04-01T02:45:53.419Z,4.00
2019-04-01T02:46:53.333Z,4.00
2019-04-01T02:47:53.218Z,3.99
2019-04-01T02:48:53.117Z,4.10
2019-04-01T02:49:53.314Z,4.07
2019-04-01T02:50:52.921Z,4.06
2019-04-01T02:51:52.836Z,4.16
2019-04-01T02:52:52.718Z,4.14
2019-04-01T02:53:52.622Z,4.14
2019-04-01T02:54:52.545Z,4.26
2019-04-01T02:55:52.422Z,4.29
2019-04-01T02:56:52.444Z,4.35
2019-04-01T02:57:52.221Z,4.51
2019-04-01T02:58:52.123Z,4.57
2019-04-01T02:59:52.029Z,4.64
2019-04-01T03:00:51.927Z,4.77
2019-04-01T03:01:51.842Z,4.84
2019-04-01T03:02:51.726Z,4.96
2019-04-01T03:03:51.628Z,5.01
2019-04-01T03:04:51.530Z,5.04
2019-04-01T03:05:51.460Z,5.02
2019-04-01T03:06:51.344Z,5.15
2019-04-01T03:07:51.232Z,5.02
2019-04-01T03:08:51.128Z,5.12
2019-04-01T03:09:51.029Z,5.12
2019-04-01T03:10:50.929Z,4.99
2019-04-01T03:11:50.848Z,5.02
2019-04-01T03:12:50.748Z,5.09
2019-04-01T03:13:50.630Z,5.05
2019-04-01T03:14:50.539Z,5.14
2019-04-01T03:15:50.432Z,5.05
2019-04-01T03:16:50.347Z,5.01
2019-04-01T03:17:50.229Z,5.08
2019-04-01T03:18:50.130Z,5.09
2019-04-01T03:19:50.046Z,5.05
2019-04-01T03:20:49.932Z,5.09
2019-04-01T03:21:49.849Z,4.99
2019-04-01T03:22:49.736Z,5.02
2019-04-01T03:23:49.655Z,5.01
2019-04-01T03:24:49.535Z,5.11
2019-04-01T03:25:49.438Z,5.02
2019-04-01T03:26:49.351Z,5.05
2019-04-01T03:27:49.247Z,5.06
2019-04-01T03:28:49.137Z,5.02
2019-04-01T03:29:49.038Z,4.97
2019-04-01T03:30:48.933Z,4.99
2019-04-01T03:31:48.880Z,5.02
2019-04-01T03:32:48.740Z,5.01
2019-04-01T03:33:48.641Z,5.01
2019-04-01T03:34:48.547Z,5.04
2019-04-01T03:35:48.439Z,5.11
2019-04-01T03:36:48.353Z,5.01
2019-04-01T03:37:48.237Z,4.93
2019-04-01T03:38:48.138Z,4.97
2019-04-01T03:39:48.049Z,4.97
2019-04-01T03:40:47.937Z,4.90
2019-04-01T03:41:47.853Z,4.96
2019-04-01T03:42:47.737Z,4.99
2019-04-01T03:43:47.638Z,5.02
2019-04-01T03:44:47.538Z,4.94
2019-04-01T03:45:47.437Z,4.97
2019-04-01T03:46:47.364Z,4.97
2019-04-01T03:47:47.236Z,4.99
2019-04-01T03:48:47.142Z,4.94
2019-04-01T03:49:47.035Z,5.01
2019-04-01T03:50:46.938Z,4.93
2019-04-01T03:51:46.854Z,4.99
2019-04-01T03:52:46.745Z,4.97
2019-04-01T03:53:46.646Z,4.99
2019-04-01T03:54:46.538Z,5.01
2019-04-01T03:55:46.437Z,5.04
2019-04-01T03:56:46.352Z,5.02
2019-04-01T03:57:46.246Z,5.02
2019-04-01T03:58:46.137Z,5.04
2019-04-01T03:59:46.169Z,4.96
2019-04-01T04:00:45.936Z,4.97
2019-04-01T04:01:45.855Z,4.94
2019-04-01T04:02:45.738Z,4.94
2019-04-01T04:03:45.636Z,4.93
2019-04-01T04:04:45.541Z,5.01
2019-04-01T04:05:45.440Z,5.02
2019-04-01T04:06:45.463Z,4.94
2019-04-01T04:07:45.245Z,4.93
2019-04-01T04:08:45.140Z,5.04
2019-04-01T04:09:45.037Z,5.01
2019-04-01T04:10:44.938Z,5.02
2019-04-01T04:11:44.855Z,4.96
2019-04-01T04:12:44.737Z,4.97
2019-04-01T04:13:44.746Z,5.04
2019-04-01T04:14:44.538Z,5.01
2019-04-01T04:15:44.437Z,5.04
2019-04-01T04:16:44.352Z,4.94
2019-04-01T04:17:44.257Z,4.88
2019-04-01T04:18:44.140Z,5.01
2019-04-01T04:19:44.038Z,4.94
2019-04-01T04:20:44.040Z,4.96
2019-04-01T04:21:43.840Z,4.96
2019-04-01T04:22:43.753Z,4.93
2019-04-01T04:23:43.638Z,4.87
2019-04-01T04:24:43.539Z,4.90
2019-04-01T04:25:43.441Z,4.86
2019-04-01T04:26:43.349Z,4.90
2019-04-01T04:27:43.372Z,4.80
2019-04-01T04:28:43.149Z,4.83
2019-04-01T04:29:43.046Z,4.75
2019-04-01T04:30:42.937Z,4.79
2019-04-01T04:31:42.840Z,4.71
2019-04-01T04:32:42.755Z,4.65
2019-04-01T04:33:42.637Z,4.71
2019-04-01T04:34:42.639Z,4.62
2019-04-01T04:35:42.439Z,4.65
2019-04-01T04:36:42.335Z,4.61
2019-04-01T04:37:42.254Z,4.54
2019-04-01T04:38:42.139Z,4.56
2019-04-01T04:39:42.034Z,4.54
2019-04-01T04:40:41.942Z,4.47
2019-04-01T04:41:41.934Z,4.42
2019-04-01T04:42:41.749Z,4.35
2019-04-01T04:43:41.632Z,4.29
2019-04-01T04:44:41.536Z,4.31
2019-04-01T04:45:41.436Z,4.31
2019-04-01T04:46:41.334Z,4.25
2019-04-01T04:47:41.249Z,4.21
2019-04-01T04:48:41.251Z,4.25
2019-04-01T04:49:41.034Z,4.18
2019-04-01T04:50:40.931Z,4.28
2019-04-01T04:51:40.833Z,4.28
2019-04-01T04:52:40.750Z,4.25
2019-04-01T04:53:40.637Z,4.26
2019-04-01T04:54:40.529Z,4.17
2019-04-01T04:55:40.528Z,4.13
2019-04-01T04:56:40.329Z,4.17
2019-04-01T04:57:40.244Z,4.14
2019-04-01T04:58:40.128Z,4.17
2019-04-01T04:59:40.029Z,4.20
2019-04-01T05:00:39.931Z,4.04
2019-04-01T05:01:39.825Z,4.14
2019-04-01T05:02:39.842Z,4.04
2019-04-01T05:03:39.626Z,4.07
2019-04-01T05:04:39.524Z,4.11
2019-04-01T05:05:39.428Z,4.10
2019-04-01T05:06:39.323Z,4.07
2019-04-01T05:07:39.245Z,4.10
2019-04-01T05:08:39.121Z,4.14
2019-04-01T05:09:39.120Z,4.17
2019-04-01T05:10:38.923Z,4.08
2019-04-01T05:11:38.824Z,4.10
2019-04-01T05:12:38.737Z,4.08
2019-04-01T05:13:38.627Z,4.17
2019-04-01T05:14:38.518Z,4.14
2019-04-01T05:15:38.417Z,4.13
2019-04-01T05:16:38.317Z,4.08
2019-04-01T05:17:38.235Z,4.04
2019-04-01T05:18:38.118Z,4.11
2019-04-01T05:19:38.016Z,4.17
2019-04-01T05:20:37.921Z,4.07
2019-04-01T05:21:37.816Z,4.14
2019-04-01T05:22:37.735Z,4.13
2019-04-01T05:23:37.616Z,4.13
2019-04-01T05:24:37.512Z,4.25
2019-04-01T05:25:37.412Z,4.17
2019-04-01T05:26:37.315Z,4.20
2019-04-01T05:27:37.241Z,4.21
2019-04-01T05:28:37.113Z,4.11
2019-04-01T05:29:37.010Z,4.21
2019-04-01T05:30:36.912Z,4.26
2019-04-01T05:31:36.811Z,4.24
2019-04-01T05:32:36.730Z,4.17
2019-04-01T05:33:36.613Z,4.14
2019-04-01T05:34:36.511Z,4.11
2019-04-01T05:35:36.422Z,4.16
2019-04-01T05:36:36.307Z,4.28
2019-04-01T05:37:36.223Z,4.24
2019-04-01T05:38:36.107Z,4.28
2019-04-01T05:39:36.009Z,4.39
2019-04-01T05:40:35.906Z,4.46
2019-04-01T05:41:35.809Z,4.56
2019-04-01T05:42:35.723Z,4.62
2019-04-01T05:43:35.606Z,4.68
2019-04-01T05:44:35.510Z,4.75
2019-04-01T05:45:35.405Z,4.86
2019-04-01T05:46:35.342Z,4.90
2019-04-01T05:47:35.223Z,4.96
2019-04-01T05:48:35.105Z,4.97
2019-04-01T05:49:35.005Z,5.02
2019-04-01T05:50:34.905Z,4.99
2019-04-01T05:51:34.813Z,4.86
2019-04-01T05:52:34.724Z,4.80
2019-04-01T05:53:34.607Z,4.80
2019-04-01T05:54:34.507Z,4.79
2019-04-01T05:55:34.407Z,4.65
2019-04-01T05:56:34.309Z,4.64
2019-04-01T05:57:34.211Z,4.61
2019-04-01T05:58:34.126Z,4.56
2019-04-01T05:59:34.015Z,4.54
2019-04-01T06:00:33.917Z,4.59
2019-04-01T06:01:33.810Z,4.62
2019-04-01T06:02:33.730Z,4.62
2019-04-01T06:03:33.613Z,4.59
2019-04-01T06:04:33.629Z,4.49
2019-04-01T06:05:33.411Z,4.62
2019-04-01T06:06:33.311Z,4.59
2019-04-01T06:07:33.218Z,4.56
2019-04-01T06:08:33.132Z,4.59
2019-04-01T06:09:33.014Z,4.62
2019-04-01T06:10:32.915Z,4.59
2019-04-01T06:11:32.813Z,4.65
2019-04-01T06:12:32.715Z,4.65
2019-04-01T06:13:32.630Z,4.74
2019-04-01T06:14:32.517Z,4.72
2019-04-01T06:15:32.420Z,4.64
2019-04-01T06:16:32.317Z,4.74
2019-04-01T06:17:32.217Z,4.75
2019-04-01T06:18:32.254Z,4.94
2019-04-01T06:19:32.021Z,5.02
2019-04-01T06:20:31.918Z,5.02
2019-04-01T06:21:31.821Z,5.12
2019-04-01T06:22:31.738Z,5.23
2019-04-01T06:23:31.638Z,5.06
2019-04-01T06:24:31.520Z,5.01
2019-04-01T06:25:31.582Z,5.08
2019-04-01T06:26:31.327Z,5.06
2019-04-01T06:27:31.734Z,5.11
2019-04-01T06:28:31.141Z,5.32
2019-04-01T06:29:31.022Z,5.33
2019-04-01T06:30:30.925Z,5.27
2019-04-01T06:31:30.828Z,5.37
2019-04-01T06:32:30.853Z,5.30
2019-04-01T06:33:30.647Z,5.48
2019-04-01T06:34:30.539Z,5.58
2019-04-01T06:35:30.432Z,5.70
2019-04-01T06:36:30.333Z,5.56
2019-04-01T06:37:30.234Z,5.63
2019-04-01T06:38:30.153Z,5.62
2019-04-01T06:39:30.144Z,5.60
2019-04-01T06:40:29.944Z,5.65
2019-04-01T06:41:29.841Z,5.58
2019-04-01T06:42:29.738Z,5.73
2019-04-01T06:43:29.661Z,5.69
2019-04-01T06:44:29.543Z,5.88
2019-04-01T06:45:29.447Z,6.01
2019-04-01T06:46:29.458Z,5.96
2019-04-01T06:47:29.250Z,5.99
2019-04-01T06:48:29.170Z,6.17
2019-04-01T06:49:29.055Z,6.27
2019-04-01T06:50:28.957Z,6.32
2019-04-01T06:51:28.860Z,6.45
2019-04-01T06:52:28.762Z,6.55
2019-04-01T06:53:28.826Z,6.60
2019-04-01T06:54:28.569Z,6.63
2019-04-01T06:55:28.473Z,6.65
2019-04-01T06:56:28.371Z,6.71
2019-04-01T06:57:28.276Z,6.71
2019-04-01T06:58:28.195Z,6.90
2019-04-01T06:59:28.083Z,7.09
2019-04-01T07:00:28.087Z,7.24
2019-04-01T07:01:27.888Z,7.14
2019-04-01T07:02:27.792Z,7.37
2019-04-01T07:03:27.710Z,7.39
2019-04-01T07:04:27.594Z,7.32
2019-04-01T07:05:27.498Z,7.44
2019-04-01T07:06:27.402Z,7.57
2019-04-01T07:07:27.413Z,7.48
2019-04-01T07:08:27.223Z,7.41
2019-04-01T07:09:27.112Z,7.51
2019-04-01T07:10:27.019Z,7.57
2019-04-01T07:11:27.023Z,7.70
2019-04-01T07:12:26.825Z,7.76
2019-04-01T07:13:26.743Z,8.07
2019-04-01T07:14:26.740Z,8.28
2019-04-01T07:15:26.536Z,8.52
2019-04-01T07:16:26.441Z,8.32
2019-04-01T07:17:26.343Z,8.40
2019-04-01T07:18:26.272Z,8.40
2019-04-01T07:19:26.154Z,8.27
2019-04-01T07:20:26.055Z,8.04
2019-04-01T07:21:26.075Z,8.10
2019-04-01T07:22:25.870Z,8.42
2019-04-01T07:23:25.792Z,8.64
2019-04-01T07:24:25.678Z,9.13
2019-04-01T07:25:25.581Z,9.26
2019-04-01T07:26:25.488Z,9.26
2019-04-01T07:27:25.517Z,9.03
2019-04-01T07:28:25.314Z,8.82
2019-04-01T07:29:25.201Z,8.54
2019-04-01T07:30:25.111Z,8.76
2019-04-01T07:31:25.014Z,9.16
2019-04-01T07:32:24.921Z,9.13
2019-04-01T07:33:24.853Z,9.12
2019-04-01T07:34:24.734Z,9.16
2019-04-01T07:35:24.643Z,8.98
2019-04-01T07:36:24.542Z,9.40
2019-04-01T07:37:24.450Z,8.98
2019-04-01T07:38:26.096Z,8.79
2019-04-01T07:39:24.261Z,8.64
2019-04-01T07:40:24.166Z,8.71
2019-04-01T07:41:24.201Z,8.83
2019-04-01T07:42:23.982Z,8.61
2019-04-01T07:43:23.901Z,8.86
2019-04-01T07:44:23.793Z,8.93
2019-04-01T07:45:23.701Z,8.79
2019-04-01T07:46:23.604Z,8.67
2019-04-01T07:47:23.510Z,8.85
2019-04-01T07:48:23.418Z,8.70
2019-04-01T07:49:23.340Z,8.76
2019-04-01T07:50:23.251Z,8.88
2019-04-01T07:51:23.137Z,9.08
2019-04-01T07:52:23.040Z,9.31
2019-04-01T07:53:22.949Z,9.00
2019-04-01T07:54:22.873Z,8.85
2019-04-01T07:55:22.764Z,8.68
2019-04-01T07:56:22.669Z,9.20
2019-04-01T07:57:22.575Z,9.08
2019-04-01T07:58:22.482Z,9.16
2019-04-01T07:59:22.404Z,9.12
2019-04-01T08:00:22.293Z,8.94
2019-04-01T08:01:22.201Z,9.37
2019-04-01T08:02:22.115Z,9.23
2019-04-01T08:03:22.014Z,9.10
2019-04-01T08:04:21.933Z,9.20
2019-04-01T08:05:21.823Z,9.22
2019-04-01T08:06:21.733Z,9.62
2019-04-01T08:07:21.636Z,9.58
2019-04-01T08:08:21.544Z,9.48
2019-04-01T08:09:21.467Z,9.62
2019-04-01T08:10:21.360Z,9.60
2019-04-01T08:11:21.264Z,9.70
2019-04-01T08:12:21.169Z,9.44
2019-04-01T08:13:21.079Z,9.24
2019-04-01T08:14:21.002Z,9.32
2019-04-01T08:15:21.462Z,9.78
2019-04-01T08:16:20.797Z,10.09
2019-04-01T08:17:20.703Z,9.95
2019-04-01T08:18:20.610Z,9.91
2019-04-01T08:19:20.536Z,10.04
2019-04-01T08:20:20.425Z,10.22
2019-04-01T08:21:20.330Z,9.77
2019-04-01T08:22:20.237Z,9.17
2019-04-01T08:23:20.145Z,9.22
2019-04-01T08:24:20.067Z,9.65
2019-04-01T08:25:19.959Z,9.74
2019-04-01T08:26:19.865Z,9.74
2019-04-01T08:27:19.774Z,9.59
2019-04-01T08:28:19.680Z,9.70
2019-04-01T08:29:29.965Z,9.10
2019-04-01T08:30:19.493Z,8.80
2019-04-01T08:31:19.407Z,8.88
2019-04-01T08:32:19.305Z,9.15
2019-04-01T08:33:19.234Z,8.98
2019-04-01T08:34:19.138Z,9.26
2019-04-01T08:35:19.027Z,9.15
2019-04-01T08:36:18.932Z,9.37
2019-04-01T08:37:18.845Z,9.13
2019-04-01T08:38:18.748Z,9.22
2019-04-01T08:39:18.669Z,8.63
2019-04-01T08:40:18.561Z,8.82
2019-04-01T08:41:18.466Z,8.76
2019-04-01T08:42:18.371Z,8.52
2019-04-01T08:43:18.278Z,8.76
2019-04-01T08:44:18.198Z,8.75
2019-04-01T08:45:18.194Z,9.23
2019-04-01T08:46:17.999Z,9.48
2019-04-01T08:47:17.902Z,9.48
2019-04-01T08:48:17.807Z,9.60
2019-04-01T08:49:17.731Z,9.81
2019-04-01T08:50:17.619Z,9.56
2019-04-01T08:51:17.529Z,9.58
2019-04-01T08:52:17.540Z,9.56
2019-04-01T08:53:17.341Z,9.20
2019-04-01T08:54:17.261Z,9.13
2019-04-01T08:55:17.154Z,9.06
2019-04-01T08:56:17.055Z,9.15
2019-04-01T08:57:16.994Z,8.94
2019-04-01T08:58:16.875Z,9.22
2019-04-01T08:59:16.902Z,9.53
2019-04-01T09:00:16.680Z,9.62
2019-04-01T09:01:16.587Z,9.35
2019-04-01T09:02:18.151Z,9.60
2019-04-01T09:03:16.399Z,9.73
2019-04-01T09:04:16.322Z,10.07
2019-04-01T09:05:16.209Z,9.74
2019-04-01T09:06:16.216Z,9.83
2019-04-01T09:07:16.028Z,9.44
2019-04-01T09:08:15.930Z,9.31
2019-04-01T09:09:15.859Z,9.48
2019-04-01T09:10:15.740Z,9.77
2019-04-01T09:11:15.647Z,9.86
2019-04-01T09:12:15.552Z,10.18
2019-04-01T09:13:15.578Z,10.24
2019-04-01T09:14:15.440Z,10.43
2019-04-01T09:15:15.282Z,10.28
2019-04-01T09:16:15.181Z,10.57
2019-04-01T09:17:15.086Z,10.47
2019-04-01T09:18:14.993Z,10.34
2019-04-01T09:19:14.915Z,10.20
2019-04-01T09:20:14.914Z,9.98
2019-04-01T09:21:14.709Z,9.73
2019-04-01T09:22:14.630Z,9.77
2019-04-01T09:23:14.527Z,9.70
2019-04-01T09:24:14.531Z,10.14
2019-04-01T09:25:14.338Z,10.24
2019-04-01T09:26:14.247Z,9.88
2019-04-01T09:27:14.258Z,10.17
2019-04-01T09:28:14.058Z,10.91
2019-04-01T09:29:13.980Z,11.24
2019-04-01T09:30:13.873Z,10.99
2019-04-01T09:31:13.789Z,10.68
2019-04-01T09:32:13.684Z,10.70
2019-04-01T09:33:13.591Z,10.51
2019-04-01T09:34:13.608Z,9.95
2019-04-01T09:35:13.422Z,10.02
2019-04-01T09:36:13.317Z,10.70
2019-04-01T09:37:13.227Z,11.33
2019-04-01T09:38:13.126Z,11.30
2019-04-01T09:39:13.035Z,11.41
2019-04-01T09:40:12.957Z,11.66
2019-04-01T09:41:13.539Z,12.04
2019-04-01T09:42:12.753Z,12.21
2019-04-01T09:43:14.283Z,12.23
2019-04-01T09:44:12.570Z,12.11
2019-04-01T09:45:12.492Z,12.43
2019-04-01T09:46:12.383Z,12.43
2019-04-01T09:47:12.295Z,12.40
2019-04-01T09:48:12.304Z,12.25
2019-04-01T09:49:12.115Z,12.33
2019-04-01T09:50:12.036Z,12.15
2019-04-01T09:51:11.926Z,11.39
2019-04-01T09:52:11.834Z,11.12
2019-04-01T09:53:11.768Z,11.66
2019-04-01T09:54:11.653Z,11.96
2019-04-01T09:55:11.691Z,12.30
2019-04-01T09:56:11.469Z,11.77
2019-04-01T09:57:18.001Z,11.54
2019-04-01T09:58:11.287Z,11.53
2019-04-01T09:59:11.197Z,11.63
2019-04-01T10:00:11.126Z,11.74
2019-04-01T10:01:11.225Z,11.33
2019-04-01T10:02:10.994Z,11.62
2019-04-01T10:03:10.833Z,11.74
2019-04-01T10:04:10.742Z,11.70
2019-04-01T10:05:10.668Z,11.49
2019-04-01T10:06:10.720Z,11.16
2019-04-01T10:07:10.471Z,10.84
2019-04-01T10:08:10.382Z,11.21
2019-04-01T10:09:10.287Z,11.42
2019-04-01T10:10:10.218Z,11.70
2019-04-01T10:11:12.585Z,12.26
2019-04-01T10:12:10.015Z,11.56
2019-04-01T10:13:09.927Z,11.54
2019-04-01T10:14:09.855Z,11.82
2019-04-01T10:15:09.761Z,12.25
2019-04-01T10:16:09.652Z,12.85
2019-04-01T10:17:09.570Z,12.51
2019-04-01T10:18:09.472Z,12.38
2019-04-01T10:19:09.381Z,12.55
2019-04-01T10:20:09.306Z,12.05
2019-04-01T10:21:09.200Z,11.90
2019-04-01T10:22:09.106Z,11.96
2019-04-01T10:23:09.016Z,11.81
2019-04-01T10:24:08.929Z,11.30
2019-04-01T10:25:08.851Z,11.42
2019-04-01T10:26:08.750Z,11.51
2019-04-01T10:27:08.654Z,11.05
2019-04-01T10:28:08.562Z,11.02
2019-04-01T10:29:08.470Z,11.09
2019-04-01T10:30:08.395Z,11.53
2019-04-01T10:31:08.289Z,11.60
2019-04-01T10:32:08.199Z,11.66
2019-04-01T10:33:08.110Z,11.48
2019-04-01T10:34:08.014Z,11.45
2019-04-01T10:35:07.947Z,12.05
2019-04-01T10:36:07.835Z,12.44
2019-04-01T10:37:07.744Z,12.70
2019-04-01T10:38:07.655Z,13.03
2019-04-01T10:39:07.562Z,13.29
2019-04-01T10:40:07.493Z,12.79
2019-04-01T10:41:07.381Z,13.43
2019-04-01T10:42:07.289Z,13.25
2019-04-01T10:43:07.199Z,13.31
2019-04-01T10:44:07.124Z,13.61
2019-04-01T10:45:07.035Z,12.88
2019-04-01T10:46:06.927Z,12.88
2019-04-01T10:47:06.862Z,12.58
2019-04-01T10:48:06.747Z,12.67
2019-04-01T10:49:06.693Z,12.85
2019-04-01T10:50:06.625Z,12.58
2019-04-01T10:51:06.517Z,12.91
2019-04-01T10:52:06.405Z,12.99
2019-04-01T10:53:06.326Z,13.14
2019-04-01T10:54:06.272Z,14.04
2019-04-01T10:55:06.194Z,13.72
2019-04-01T10:56:06.075Z,13.98
2019-04-01T10:57:05.996Z,13.88
2019-04-01T10:58:05.858Z,13.53
2019-04-01T10:59:05.821Z,13.75
2019-04-01T11:00:05.692Z,13.47
2019-04-01T11:01:05.609Z,13.50
2019-04-01T11:02:05.489Z,12.99
2019-04-01T11:03:06.217Z,13.16
2019-04-01T11:04:05.371Z,12.99
2019-04-01T11:05:05.248Z,13.47
2019-04-01T11:06:05.249Z,12.95
2019-04-01T11:07:05.106Z,13.17
2019-04-01T11:08:04.967Z,13.38
2019-04-01T11:09:04.890Z,13.68
2019-04-01T11:10:04.792Z,13.31
2019-04-01T11:11:04.690Z,13.19
2019-04-01T11:12:04.595Z,13.47
2019-04-01T11:13:04.508Z,13.62
2019-04-01T11:14:04.417Z,13.71
2019-04-01T11:15:04.345Z,13.59
2019-04-01T11:16:04.242Z,14.26
2019-04-01T11:17:04.709Z,14.08
2019-04-01T11:18:04.166Z,13.65
2019-04-01T11:19:03.975Z,13.36
2019-04-01T11:20:03.892Z,13.12
2019-04-01T11:21:04.984Z,13.32
2019-04-01T11:22:03.952Z,13.01
2019-04-01T11:23:05.021Z,13.35
2019-04-01T11:24:05.819Z,13.53
2019-04-01T11:25:03.565Z,13.63
2019-04-01T11:26:03.369Z,13.65
2019-04-01T11:27:03.261Z,13.63
2019-04-01T11:28:03.176Z,13.65
2019-04-01T11:29:03.082Z,13.14
2019-04-01T11:30:02.998Z,13.43
2019-04-01T11:31:02.959Z,13.38
2019-04-01T11:32:02.973Z,13.62
2019-04-01T11:33:02.751Z,13.57
2019-04-01T11:34:02.654Z,13.48
2019-04-01T11:35:02.555Z,13.09
2019-04-01T11:36:02.588Z,13.38
2019-04-01T11:37:02.393Z,13.87
2019-04-01T11:38:02.331Z,14.12
2019-04-01T11:39:02.311Z,14.29
2019-04-01T11:40:02.108Z,13.96
2019-04-01T11:41:02.083Z,14.35
2019-04-01T11:42:01.978Z,13.96
2019-04-01T11:43:04.981Z,13.72
2019-04-01T11:44:01.797Z,13.51
2019-04-01T11:45:05.513Z,13.68
2019-04-01T11:46:01.754Z,14.05
2019-04-01T11:47:01.480Z,14.59
2019-04-01T11:48:01.398Z,14.56
2019-04-01T11:49:01.324Z,14.31
2019-04-01T11:50:01.213Z,14.20
2019-04-01T11:51:01.190Z,13.55
2019-04-01T11:52:01.066Z,13.63
2019-04-01T11:53:01.054Z,14.02
2019-04-01T11:54:00.858Z,13.79
2019-04-01T11:55:00.769Z,13.98
2019-04-01T11:56:00.697Z,14.23
2019-04-01T11:57:00.591Z,13.86
2019-04-01T11:58:00.503Z,13.47
2019-04-01T11:59:00.417Z,13.50
2019-04-01T12:00:00.494Z,13.91
2019-04-01T12:01:00.252Z,13.99
2019-04-01T12:02:00.146Z,14.41
2019-04-01T12:03:00.059Z,14.24
2019-04-01T12:03:59.971Z,14.35
2019-04-01T12:04:59.882Z,14.34
2019-04-01T12:05:59.810Z,14.61
2019-04-01T12:07:02.008Z,14.38
2019-04-01T12:07:59.614Z,14.19
2019-04-01T12:08:59.528Z,14.48
2019-04-01T12:09:59.437Z,14.49
2019-04-01T12:10:59.369Z,14.75
2019-04-01T12:11:59.262Z,14.59
2019-04-01T12:12:59.905Z,14.27
2019-04-01T12:13:59.192Z,14.20
2019-04-01T12:14:59.001Z,14.23
2019-04-01T12:15:58.960Z,14.21
2019-04-01T12:16:58.820Z,14.26
2019-04-01T12:17:58.734Z,14.49
2019-04-01T12:18:58.644Z,14.53
2019-04-01T12:19:58.556Z,14.49
2019-04-01T12:20:58.596Z,14.44
2019-04-01T12:21:58.381Z,14.48
2019-04-01T12:22:58.290Z,14.27
2019-04-01T12:23:58.203Z,14.06
2019-04-01T12:24:58.110Z,14.19
2019-04-01T12:25:58.041Z,14.60
2019-04-01T12:26:58.059Z,14.79
2019-04-01T12:27:57.847Z,14.80
2019-04-01T12:28:57.758Z,14.91
2019-04-01T12:29:57.670Z,14.60
2019-04-01T12:30:57.629Z,13.98
2019-04-01T12:31:59.670Z,13.68
2019-04-01T12:32:57.402Z,13.68
2019-04-01T12:33:57.312Z,13.86
2019-04-01T12:34:57.226Z,13.54
2019-04-01T12:35:57.152Z,13.46
2019-04-01T12:36:57.048Z,13.63
2019-04-01T12:37:56.958Z,13.59
2019-04-01T12:38:56.872Z,13.72
2019-04-01T12:39:56.781Z,14.11
2019-04-01T12:40:56.712Z,14.36
2019-04-01T12:41:56.603Z,13.99
2019-04-01T12:42:56.520Z,13.81
2019-04-01T12:43:56.424Z,13.59
2019-04-01T12:44:56.335Z,13.68
2019-04-01T12:45:56.264Z,13.98
2019-04-01T12:46:56.158Z,14.35
2019-04-01T12:47:56.067Z,14.30
2019-04-01T12:48:55.996Z,13.90
2019-04-01T12:49:55.890Z,13.91
2019-04-01T12:50:55.815Z,14.35
2019-04-01T12:51:58.312Z,14.46
2019-04-01T12:52:55.635Z,14.42
2019-04-01T12:53:55.533Z,14.19
2019-04-01T12:54:55.445Z,13.88
2019-04-01T12:55:55.371Z,13.38
2019-04-01T12:56:55.265Z,13.17
2019-04-01T12:57:55.177Z,12.89
2019-04-01T12:58:55.089Z,12.87
2019-04-01T12:59:54.997Z,12.67
2019-04-01T13:00:54.927Z,12.66
2019-04-01T13:01:54.821Z,12.56
2019-04-01T13:02:54.729Z,12.30
2019-04-01T13:03:54.642Z,12.08
2019-04-01T13:04:54.551Z,11.94
2019-04-01T13:05:54.479Z,11.98
2019-04-01T13:06:54.373Z,12.13
2019-04-01T13:07:54.438Z,12.29
2019-04-01T13:08:54.192Z,12.29